Time;durP1;ratioP1;P1;durP2;ratioP2;P2;SDS_P1;SDS_P2;PMS_P1;PMS_P2;Temp;Humidity;BMP_temperature;BMP_pressure;BME280_temperature;BME280_humidity;BME280_pressure;Samples;Min_cycle;Max_cycle;Signal;HPM_P1;HPM_P2
2022/01/17 00:02:22;;;;;;;19.77;2.30;;;4.00;81.70;;;;;;5032114;28;20047;-72
2022/01/17 00:04:48;;;;;;;14.18;2.17;;;3.90;81.80;;;;;;5058353;28;20040;-73
2022/01/17 00:07:15;;;;;;;13.18;2.00;;;3.90;81.70;;;;;;5047768;28;20085;-73
2022/01/17 00:09:41;;;;;;;18.05;1.65;;;3.80;82.30;;;;;;5063292;28;20064;-73
2022/01/17 00:12:08;;;;;;;18.52;2.47;;;3.70;82.60;;;;;;5060334;28;20530;-73
2022/01/17 00:14:39;;;;;;;15.98;2.03;;;3.60;82.80;;;;;;5052731;28;20055;-73
2022/01/17 00:17:56;;;;;;;20.48;1.67;;;3.50;82.80;;;;;;5051053;28;20046;-73
2022/01/17 00:19:55;;;;;;;20.33;1.80;;;3.40;82.60;;;;;;5046428;28;20052;-73
2022/01/17 00:22:24;;;;;;;27.45;4.30;;;3.30;82.70;;;;;;5034726;28;20036;-73
2022/01/17 00:24:50;;;;;;;20.40;2.50;;;3.20;82.50;;;;;;5045449;28;20055;-73
2022/01/17 00:27:16;;;;;;;17.20;2.35;;;3.20;82.70;;;;;;5045458;28;20063;-73
2022/01/17 00:29:43;;;;;;;19.25;3.17;;;3.10;83.10;;;;;;5055934;28;20408;-73
2022/01/17 00:32:08;;;;;;;18.75;3.00;;;3.10;83.00;;;;;;5058913;28;20087;-73
2022/01/17 00:34:34;;;;;;;18.93;2.67;;;3.10;83.30;;;;;;5049620;28;20102;-73
2022/01/17 00:37:00;;;;;;;18.47;2.47;;;3.00;82.90;;;;;;5055657;28;20098;-73
2022/01/17 00:39:26;;;;;;;22.07;2.27;;;3.00;83.30;;;;;;5036132;28;20125;-73
2022/01/17 00:41:52;;;;;;;15.57;2.50;;;3.00;83.50;;;;;;5039258;28;20055;-73
2022/01/17 00:44:23;;;;;;;16.73;2.42;;;3.00;83.70;;;;;;5036378;28;20484;-73
2022/01/17 00:46:50;;;;;;;19.30;2.22;;;3.00;83.60;;;;;;5055737;28;20421;-73
2022/01/17 00:49:16;;;;;;;21.98;2.55;;;3.10;83.50;;;;;;5046369;28;20191;-73
2022/01/17 00:51:42;;;;;;;19.80;2.47;;;3.10;83.70;;;;;;5032777;28;20115;-73
2022/01/17 00:54:08;;;;;;;14.93;2.03;;;3.10;83.60;;;;;;5039826;28;20047;-73
2022/01/17 00:56:34;;;;;;;20.20;2.47;;;3.10;83.90;;;;;;5044551;28;20543;-73
2022/01/17 00:59:00;;;;;;;19.33;2.40;;;3.00;84.00;;;;;;5053243;28;20032;-73
2022/01/17 01:01:26;;;;;;;16.50;2.30;;;3.00;83.40;;;;;;5057333;28;20032;-73
2022/01/17 01:03:52;;;;;;;15.03;2.10;;;3.10;83.60;;;;;;5057189;28;20326;-73
2022/01/17 01:06:18;;;;;;;18.77;2.33;;;3.10;83.90;;;;;;5045759;28;20287;-73
2022/01/17 01:08:44;;;;;;;18.37;2.30;;;3.10;84.00;;;;;;5054674;28;20043;-73
2022/01/17 01:11:10;;;;;;;19.87;2.17;;;3.10;84.20;;;;;;5045619;28;20037;-73
2022/01/17 01:13:36;;;;;;;16.47;2.03;;;3.20;84.40;;;;;;5038599;28;20455;-73
2022/01/17 01:29:20;;;;;;;15.60;2.20;;;3.30;84.80;;;;;;5055607;28;20194;-73
2022/01/17 01:31:56;;;;;;;18.15;2.08;;;3.30;84.80;;;;;;5036513;28;20044;-73
2022/01/17 01:34:32;;;;;;;23.05;2.65;;;3.30;84.70;;;;;;5032441;28;20521;-73
2022/01/17 01:36:58;;;;;;;26.17;2.70;;;3.30;84.80;;;;;;5051064;28;20058;-74
2022/01/17 01:39:24;;;;;;;19.83;3.43;;;3.30;84.90;;;;;;5032406;28;20119;-72
2022/01/17 01:41:51;;;;;;;20.63;2.20;;;3.30;84.90;;;;;;5046153;28;20048;-74
2022/01/17 01:44:20;;;;;;;24.50;3.50;;;3.20;84.90;;;;;;5066645;28;20055;-73
2022/01/17 01:46:48;;;;;;;24.33;3.33;;;3.20;85.00;;;;;;5053859;28;20055;-74
2022/01/17 01:49:15;;;;;;;22.70;3.08;;;3.20;85.00;;;;;;5067963;28;20040;-73
2022/01/17 01:51:42;;;;;;;19.30;2.67;;;3.20;85.00;;;;;;5049787;28;20036;-73
2022/01/17 01:54:08;;;;;;;20.73;2.90;;;3.20;85.30;;;;;;5054423;28;20044;-73
2022/01/17 01:56:39;;;;;;;19.00;2.10;;;3.20;85.20;;;;;;5050182;28;20042;-73
2022/01/17 01:59:06;;;;;;;18.17;3.13;;;3.20;85.10;;;;;;5063006;28;20088;-73
2022/01/17 02:01:32;;;;;;;22.85;2.97;;;3.20;85.20;;;;;;5027917;28;20059;-73
2022/01/17 02:03:58;;;;;;;28.92;3.70;;;3.20;85.30;;;;;;5055760;28;20388;-73
2022/01/17 02:06:24;;;;;;;27.65;2.75;;;3.20;85.10;;;;;;5041752;28;20044;-73
2022/01/17 02:08:50;;;;;;;17.57;2.80;;;3.30;84.80;;;;;;5052656;28;20059;-73
2022/01/17 02:11:16;;;;;;;18.07;2.33;;;3.30;84.80;;;;;;5046924;28;20358;-73
2022/01/17 02:13:42;;;;;;;18.73;3.13;;;3.30;85.00;;;;;;5047640;28;20043;-73
2022/01/17 02:16:12;;;;;;;21.27;2.40;;;3.30;84.90;;;;;;5059111;28;20039;-73
2022/01/17 02:18:38;;;;;;;20.70;1.88;;;3.30;84.90;;;;;;5057488;28;20333;-73
2022/01/17 02:23:44;;;;;;;17.67;3.00;;;3.20;84.80;;;;;;5069747;28;20280;-73
2022/01/17 02:26:12;;;;;;;15.93;2.33;;;3.20;84.90;;;;;;5049811;28;20044;-73
2022/01/17 02:28:39;;;;;;;18.80;2.35;;;3.20;84.90;;;;;;5055609;28;20058;-73
2022/01/17 02:31:06;;;;;;;18.95;2.33;;;3.10;85.10;;;;;;5065982;28;20489;-73
2022/01/17 02:33:33;;;;;;;14.70;2.10;;;3.10;85.10;;;;;;5062657;28;20044;-73
2022/01/17 02:35:59;;;;;;;22.05;3.17;;;3.10;85.10;;;;;;5064568;28;20097;-73
2022/01/17 02:38:25;;;;;;;17.35;2.25;;;3.10;85.20;;;;;;5040863;28;20040;-73
2022/01/17 02:40:51;;;;;;;20.17;2.83;;;3.10;85.20;;;;;;5050982;28;20044;-73
2022/01/17 02:43:19;;;;;;;22.05;2.75;;;3.10;85.30;;;;;;5042352;28;20098;-73
2022/01/17 02:48:17;;;;;;;9.07;1.80;;;3.10;85.40;;;;;;5072798;28;20126;-73
2022/01/17 02:50:43;;;;;;;16.83;2.20;;;3.10;85.50;;;;;;5058547;28;20032;-73
2022/01/17 02:53:09;;;;;;;23.97;2.23;;;3.10;85.70;;;;;;5051200;28;20043;-73
2022/01/17 02:55:36;;;;;;;14.48;2.00;;;3.20;85.80;;;;;;5061637;28;20579;-73
2022/01/17 02:58:03;;;;;;;14.38;2.13;;;3.20;85.70;;;;;;5031931;28;20102;-73
2022/01/17 03:00:29;;;;;;;20.23;2.72;;;3.30;85.60;;;;;;5033356;28;20052;-73
2022/01/17 03:02:55;;;;;;;14.63;2.43;;;3.30;85.60;;;;;;5058375;28;20119;-73
2022/01/17 03:05:21;;;;;;;19.85;2.33;;;3.30;85.60;;;;;;5055194;28;20079;-73
2022/01/17 03:07:49;;;;;;;15.45;2.45;;;3.40;85.50;;;;;;5053508;28;20040;-73
2022/01/17 03:13:15;;;;;;;;;;;3.50;85.60;;;;;;5032002;28;20051;-73
2022/01/17 03:15:42;;;;;;;19.60;2.33;;;3.60;85.50;;;;;;5058018;28;19922;-73
2022/01/17 03:18:08;;;;;;;13.27;1.63;;;3.70;85.40;;;;;;5048618;28;20044;-73
2022/01/17 03:20:34;;;;;;;18.13;2.37;;;3.80;85.40;;;;;;5055277;28;20062;-73
2022/01/17 03:23:01;;;;;;;12.55;2.30;;;3.90;85.40;;;;;;5071522;28;20290;-73
2022/01/17 03:25:27;;;;;;;13.98;2.33;;;3.90;85.20;;;;;;5061512;28;20579;-73
2022/01/17 03:27:53;;;;;;;16.38;2.85;;;4.00;85.10;;;;;;5035181;28;20109;-73
2022/01/17 03:30:20;;;;;;;20.85;2.67;;;4.00;84.80;;;;;;5041091;28;20450;-73
2022/01/17 03:32:46;;;;;;;18.80;1.98;;;4.00;84.70;;;;;;5040662;28;20115;-73
2022/01/17 03:35:12;;;;;;;16.00;1.88;;;4.00;84.50;;;;;;5059457;28;20135;-73
2022/01/17 03:37:37;;;;;;;19.90;1.48;;;4.00;84.50;;;;;;5049914;28;20040;-73
2022/01/17 03:40:05;;;;;;;15.20;1.60;;;3.90;84.60;;;;;;5031037;28;20043;-73
2022/01/17 03:42:30;;;;;;;19.80;2.35;;;3.90;84.70;;;;;;5042192;28;20066;-73
2022/01/17 03:44:56;;;;;;;15.30;2.63;;;3.90;84.80;;;;;;5039485;28;20068;-74
2022/01/17 03:47:22;;;;;;;14.07;1.93;;;4.00;84.70;;;;;;5031789;28;20032;-73
2022/01/17 03:49:48;;;;;;;18.77;1.90;;;4.10;84.70;;;;;;5059622;28;20408;-73
2022/01/17 03:52:13;;;;;;;15.60;1.93;;;4.10;84.50;;;;;;5048055;28;20118;-73
2022/01/17 03:54:39;;;;;;;13.57;1.90;;;4.10;84.40;;;;;;5009620;28;20056;-73
2022/01/17 03:57:05;;;;;;;19.40;2.13;;;4.10;84.40;;;;;;5067474;28;20033;-73
2022/01/17 03:59:31;;;;;;;16.30;2.63;;;4.10;84.30;;;;;;5067206;28;20078;-73
2022/01/17 04:01:57;;;;;;;17.20;2.33;;;4.20;84.10;;;;;;5031590;28;20131;-73
2022/01/17 04:04:22;;;;;;;20.63;2.23;;;4.20;84.20;;;;;;5051101;28;20043;-73
2022/01/17 04:06:48;;;;;;;16.03;2.00;;;4.20;84.20;;;;;;5042897;28;20282;-73
2022/01/17 04:09:14;;;;;;;15.87;2.70;;;4.30;84.20;;;;;;5049863;28;20047;-73
2022/01/17 04:11:39;;;;;;;18.07;3.03;;;4.30;84.20;;;;;;5067324;28;20054;-73
2022/01/17 04:14:06;;;;;;;24.57;3.33;;;4.30;84.30;;;;;;5053864;28;20040;-73
2022/01/17 04:16:33;;;;;;;23.42;2.65;;;4.30;84.40;;;;;;5057566;28;20066;-73
2022/01/17 04:18:59;;;;;;;13.70;1.90;;;4.40;84.50;;;;;;5046755;28;20436;-74
2022/01/17 04:21:30;;;;;;;17.45;2.63;;;4.40;84.60;;;;;;5040428;28;20048;-73
2022/01/17 04:23:56;;;;;;;18.92;2.65;;;4.40;84.60;;;;;;5045106;28;20476;-73
2022/01/17 04:26:22;;;;;;;19.80;2.47;;;4.50;84.60;;;;;;5037090;28;20044;-73
2022/01/17 04:28:48;;;;;;;16.90;2.72;;;4.60;84.40;;;;;;5050480;28;20044;-73
2022/01/17 04:31:14;;;;;;;19.73;3.30;;;4.60;84.40;;;;;;5042660;28;20066;-73
2022/01/17 04:33:39;;;;;;;16.37;2.30;;;4.70;84.20;;;;;;5028028;28;20055;-73
2022/01/17 04:36:07;;;;;;;26.13;2.90;;;4.70;84.40;;;;;;5062478;28;20036;-73
2022/01/17 04:38:33;;;;;;;21.83;3.13;;;4.70;84.20;;;;;;5061017;28;20142;-73
2022/01/17 04:41:05;;;;;;;18.55;2.20;;;4.70;84.40;;;;;;5050070;28;20051;-73
2022/01/17 04:46:07;;;;;;;24.65;4.65;;;4.80;84.40;;;;;;5054552;28;20063;-73
2022/01/17 04:48:32;;;;;;;20.75;3.50;;;4.90;84.10;;;;;;5058369;28;20039;-73
2022/01/17 04:50:59;;;;;;;21.77;3.90;;;4.90;84.10;;;;;;5051002;28;20432;-73
2022/01/17 04:53:26;;;;;;;20.48;3.55;;;5.00;83.90;;;;;;5051481;28;20044;-73
2022/01/17 04:55:51;;;;;;;16.48;3.42;;;5.00;84.00;;;;;;5067186;28;20044;-73
2022/01/17 04:58:17;;;;;;;29.93;4.07;;;5.00;84.10;;;;;;5024251;28;20531;-73
2022/01/17 05:00:47;;;;;;;24.23;3.63;;;5.10;84.10;;;;;;5025952;28;20503;-73
2022/01/17 05:03:21;;;;;;;20.33;3.25;;;5.10;84.20;;;;;;5044147;28;20082;-72
2022/01/17 05:05:47;;;;;;;23.98;4.05;;;5.10;84.10;;;;;;5048023;28;20040;-72
2022/01/17 05:08:15;;;;;;;24.77;4.55;;;5.10;84.00;;;;;;5048344;28;20040;-73
2022/01/17 05:10:52;;;;;;;21.13;4.20;;;5.10;83.90;;;;;;5044215;28;20040;-73
2022/01/17 05:13:23;;;;;;;21.10;4.05;;;5.10;83.90;;;;;;5063719;28;20043;-73
2022/01/17 05:16:03;;;;;;;16.77;3.78;;;5.10;83.70;;;;;;5061083;28;20813;-73
2022/01/17 05:20:58;;;;;;;21.67;3.25;;;5.10;83.90;;;;;;5049969;28;20051;-72
2022/01/17 05:23:24;;;;;;;23.70;4.77;;;5.00;83.90;;;;;;5043141;28;20040;-72
2022/01/17 05:25:49;;;;;;;21.00;4.20;;;5.00;84.00;;;;;;5034541;28;20044;-73
2022/01/17 05:28:15;;;;;;;22.67;3.93;;;5.00;84.10;;;;;;5036334;28;20036;-73
2022/01/17 05:30:41;;;;;;;26.07;5.00;;;5.10;84.10;;;;;;5045573;28;20036;-73
2022/01/17 05:33:07;;;;;;;22.10;4.27;;;5.10;84.00;;;;;;5039048;28;20036;-72
2022/01/17 05:35:32;;;;;;;19.33;4.67;;;5.20;84.10;;;;;;5032443;28;20484;-73
2022/01/17 05:37:58;;;;;;;22.67;4.40;;;5.20;84.20;;;;;;5048163;28;20131;-73
2022/01/17 05:40:24;;;;;;;28.87;4.43;;;5.20;84.40;;;;;;5037864;28;20047;-73
2022/01/17 05:42:50;;;;;;;24.23;4.40;;;5.20;84.50;;;;;;5038932;28;20069;-73
2022/01/17 05:45:17;;;;;;;24.57;3.83;;;5.20;84.60;;;;;;5050340;28;20154;-72
2022/01/17 05:47:43;;;;;;;20.95;4.45;;;5.20;84.60;;;;;;5021369;28;20170;-73
2022/01/17 05:50:10;;;;;;;22.13;4.20;;;5.30;84.40;;;;;;5052140;28;20059;-73
2022/01/17 05:52:36;;;;;;;27.88;5.60;;;5.30;84.30;;;;;;5041793;28;20063;-73
2022/01/17 05:55:06;;;;;;;18.33;5.10;;;5.30;84.30;;;;;;5052807;28;20044;-73
2022/01/17 05:57:31;;;;;;;20.45;4.00;;;5.40;84.00;;;;;;5057444;28;20052;-72
2022/01/17 05:59:58;;;;;;;24.80;5.53;;;5.40;83.80;;;;;;5037918;28;20047;-72
2022/01/17 06:02:24;;;;;;;24.55;4.30;;;5.40;83.90;;;;;;5052308;28;20032;-72
2022/01/17 06:04:50;;;;;;;27.20;4.60;;;5.40;84.20;;;;;;5038077;28;20381;-73
2022/01/17 06:07:16;;;;;;;19.90;4.50;;;5.40;83.90;;;;;;5046790;28;20580;-74
2022/01/17 06:09:42;;;;;;;21.08;4.00;;;5.40;84.00;;;;;;5062407;28;20040;-73
2022/01/17 06:12:08;;;;;;;24.53;4.10;;;5.40;84.20;;;;;;5010141;28;20524;-72
2022/01/17 06:14:34;;;;;;;24.65;4.75;;;5.40;84.30;;;;;;5050313;28;20404;-72
2022/01/17 06:16:59;;;;;;;23.67;4.23;;;5.50;84.20;;;;;;5044250;28;20040;-72
2022/01/17 06:19:25;;;;;;;24.80;4.70;;;5.50;84.10;;;;;;5054012;28;20116;-72
2022/01/17 06:21:51;;;;;;;22.40;4.37;;;5.40;84.20;;;;;;5041125;28;20500;-73
2022/01/17 06:24:17;;;;;;;23.33;4.63;;;5.40;84.20;;;;;;5065735;28;20130;-73
2022/01/17 06:26:43;;;;;;;23.77;4.70;;;5.40;84.40;;;;;;5047324;28;20040;-72
2022/01/17 06:29:11;;;;;;;30.17;4.15;;;5.50;84.50;;;;;;5048832;28;20056;-73
2022/01/17 06:31:37;;;;;;;21.83;3.78;;;5.50;84.20;;;;;;5056847;28;20068;-72
2022/01/17 06:34:03;;;;;;;20.67;3.70;;;5.50;84.20;;;;;;5059625;28;20508;-72
2022/01/17 06:36:29;;;;;;;32.08;5.00;;;5.50;84.50;;;;;;5049347;28;20044;-72
2022/01/17 06:38:55;;;;;;;24.23;3.87;;;5.50;84.50;;;;;;5058099;28;20093;-72
2022/01/17 06:41:22;;;;;;;23.13;4.43;;;5.50;84.50;;;;;;5057491;28;20281;-73
2022/01/17 06:43:48;;;;;;;24.38;4.47;;;5.50;84.50;;;;;;5031524;28;20063;-73
2022/01/17 06:46:14;;;;;;;22.47;3.97;;;5.50;84.50;;;;;;5061674;28;20044;-73
2022/01/17 06:48:41;;;;;;;25.55;4.43;;;5.60;84.50;;;;;;5034936;28;20283;-73
2022/01/17 06:51:07;;;;;;;22.70;3.78;;;5.60;84.40;;;;;;5034387;28;20082;-72
2022/01/17 06:53:33;;;;;;;22.80;3.90;;;5.60;84.50;;;;;;5050997;28;20040;-72
2022/01/17 06:56:00;;;;;;;30.50;4.63;;;5.60;84.70;;;;;;5042360;28;20377;-72
2022/01/17 06:58:26;;;;;;;26.40;4.00;;;5.60;84.50;;;;;;4998731;28;1203340;-72
2022/01/17 07:00:52;;;;;;;28.70;4.22;;;5.60;84.80;;;;;;5037314;28;20051;-73
2022/01/17 07:03:18;;;;;;;29.07;4.23;;;5.60;84.90;;;;;;5053586;28;20048;-72
2022/01/17 07:05:43;;;;;;;28.63;3.80;;;5.70;84.80;;;;;;5057321;28;20032;-72
2022/01/17 07:08:09;;;;;;;22.13;4.37;;;5.70;84.70;;;;;;5057976;28;20496;-72
2022/01/17 07:10:35;;;;;;;26.97;4.20;;;5.70;84.90;;;;;;5056356;28;20120;-72
2022/01/17 07:13:01;;;;;;;34.00;5.10;;;5.70;84.80;;;;;;5070477;28;20575;-72
2022/01/17 07:15:26;;;;;;;28.17;4.30;;;5.80;84.90;;;;;;5026428;28;20382;-72
2022/01/17 07:17:52;;;;;;;29.93;4.17;;;5.80;84.80;;;;;;5051657;28;20053;-73
2022/01/17 07:20:18;;;;;;;25.57;4.90;;;5.80;84.70;;;;;;5045365;28;20484;-73
2022/01/17 07:22:44;;;;;;;27.57;4.97;;;5.80;84.80;;;;;;5070532;28;20501;-73
2022/01/17 07:25:10;;;;;;;34.37;5.03;;;5.80;84.60;;;;;;5052185;28;20048;-73
2022/01/17 07:27:36;;;;;;;23.23;4.70;;;5.80;84.80;;;;;;5039482;28;20816;-73
2022/01/17 07:30:07;;;;;;;26.08;4.22;;;5.80;84.70;;;;;;5070039;28;20048;-73
2022/01/17 07:32:34;;;;;;;32.88;5.20;;;5.90;84.40;;;;;;5052755;28;20051;-73
2022/01/17 07:34:59;;;;;;;32.17;4.18;;;5.90;84.40;;;;;;5046049;28;20040;-72
2022/01/17 07:37:25;;;;;;;26.67;4.10;;;5.90;84.40;;;;;;5051816;28;20043;-73
2022/01/17 07:39:51;;;;;;;30.93;4.80;;;5.90;84.40;;;;;;5048256;28;20406;-73
2022/01/17 07:42:17;;;;;;;31.53;4.37;;;5.90;84.30;;;;;;5026970;28;20119;-73
2022/01/17 07:44:44;;;;;;;28.97;4.83;;;6.00;84.20;;;;;;5056138;28;20041;-73
2022/01/17 07:47:17;;;;;;;38.08;5.38;;;5.90;84.30;;;;;;5051986;28;20123;-73
2022/01/17 07:49:45;;;;;;;32.38;4.68;;;6.00;84.40;;;;;;5058369;28;20040;-73
2022/01/17 07:52:12;;;;;;;41.13;5.28;;;6.00;84.30;;;;;;5045833;28;20112;-73
2022/01/17 07:54:43;;;;;;;39.55;5.20;;;6.00;84.40;;;;;;5026570;28;20147;-72
2022/01/17 07:57:11;;;;;;;31.60;3.97;;;6.00;84.40;;;;;;5061141;28;20048;-72
2022/01/17 07:59:37;;;;;;;33.85;5.15;;;6.10;84.20;;;;;;5034572;28;20044;-73
2022/01/17 08:02:03;;;;;;;27.85;4.13;;;6.10;84.10;;;;;;5055820;28;20044;-73
2022/01/17 08:04:30;;;;;;;28.75;3.92;;;6.10;84.20;;;;;;5060206;28;20454;-73
2022/01/17 08:06:55;;;;;;;28.45;5.22;;;6.10;84.30;;;;;;5049215;28;20041;-73
2022/01/17 08:09:25;;;;;;;28.93;4.20;;;6.10;84.40;;;;;;5045846;28;20043;-73
2022/01/17 08:11:52;;;;;;;33.30;5.30;;;6.10;84.40;;;;;;5033843;28;20468;-73
2022/01/17 08:14:17;;;;;;;29.70;4.45;;;6.20;84.30;;;;;;5055607;28;20044;-73
2022/01/17 08:16:43;;;;;;;35.40;4.60;;;6.20;84.10;;;;;;5033247;28;20043;-73
2022/01/17 08:19:09;;;;;;;28.27;4.23;;;6.30;84.00;;;;;;5049310;28;20044;-73
2022/01/17 08:21:35;;;;;;;36.07;5.10;;;6.30;84.00;;;;;;5045086;28;20088;-73
2022/01/17 08:24:00;;;;;;;37.50;4.43;;;6.30;84.00;;;;;;5038609;28;20102;-73
2022/01/17 08:26:27;;;;;;;35.10;5.27;;;6.30;84.20;;;;;;5046848;28;20044;-72
2022/01/17 08:28:53;;;;;;;29.33;4.60;;;6.40;83.80;;;;;;5041739;28;20480;-72
2022/01/17 08:31:19;;;;;;;37.60;4.20;;;6.40;83.70;;;;;;5035838;28;20047;-73
2022/01/17 08:33:45;;;;;;;27.80;4.93;;;6.50;83.60;;;;;;5059291;28;20076;-72
2022/01/17 08:36:11;;;;;;;31.95;3.92;;;6.50;83.40;;;;;;5055699;28;20077;-73
2022/01/17 08:38:38;;;;;;;30.05;4.70;;;6.60;83.40;;;;;;5057671;28;20043;-73
2022/01/17 08:41:04;;;;;;;33.92;4.47;;;6.60;83.30;;;;;;5055793;28;20397;-73
2022/01/17 08:43:30;;;;;;;29.73;4.60;;;6.70;82.90;;;;;;5058900;28;20098;-72
2022/01/17 08:45:56;;;;;;;35.03;4.33;;;6.70;83.10;;;;;;5063185;28;20352;-72
2022/01/17 08:48:24;;;;;;;27.15;4.13;;;6.70;82.90;;;;;;5060856;28;20079;-72
2022/01/17 08:50:51;;;;;;;39.60;5.07;;;6.70;83.10;;;;;;5060521;28;20051;-72
2022/01/17 08:53:17;;;;;;;28.90;4.50;;;6.70;83.20;;;;;;5047835;28;20048;-72
2022/01/17 08:55:45;;;;;;;39.60;4.82;;;6.80;82.80;;;;;;5052897;28;20097;-73
2022/01/17 08:58:12;;;;;;;26.20;4.22;;;6.80;83.00;;;;;;5038935;28;20406;-72
2022/01/17 09:00:38;;;;;;;32.80;5.22;;;6.90;82.50;;;;;;5040446;28;20522;-72
2022/01/17 09:03:04;;;;;;;30.42;4.13;;;6.90;82.70;;;;;;5057244;28;20041;-72
2022/01/17 09:05:32;;;;;;;31.02;4.78;;;6.90;82.70;;;;;;5048175;28;20051;-72
2022/01/17 09:07:58;;;;;;;38.20;4.72;;;6.90;82.70;;;;;;5059261;28;20106;-73
2022/01/17 09:10:25;;;;;;;29.27;5.10;;;6.90;82.80;;;;;;5060045;28;20051;-72
2022/01/17 09:12:52;;;;;;;28.52;4.05;;;7.00;82.40;;;;;;5048406;28;20066;-72
2022/01/17 09:15:18;;;;;;;39.03;5.55;;;7.00;82.50;;;;;;5029082;28;20040;-72
2022/01/17 09:17:44;;;;;;;28.48;4.60;;;7.00;82.30;;;;;;5048033;28;20059;-72
2022/01/17 09:20:10;;;;;;;29.00;4.05;;;7.10;82.40;;;;;;5040969;28;20123;-72
2022/01/17 09:22:37;;;;;;;30.63;4.18;;;7.10;82.10;;;;;;5047550;28;20598;-73
2022/01/17 09:25:06;;;;;;;33.80;5.18;;;7.10;82.30;;;;;;5051271;28;20040;-72
2022/01/17 09:27:36;;;;;;;26.95;4.25;;;7.20;81.70;;;;;;5039864;28;20044;-72
2022/01/17 09:30:08;;;;;;;35.17;4.60;;;7.20;81.90;;;;;;5051586;28;20063;-72
2022/01/17 09:32:37;;;;;;;31.25;5.10;;;7.30;81.90;;;;;;5036698;28;20513;-72
2022/01/17 09:35:05;;;;;;;33.95;4.07;;;7.30;81.90;;;;;;5045270;28;20524;-72
2022/01/17 09:37:31;;;;;;;27.90;4.57;;;7.40;81.80;;;;;;5063769;28;20587;-72
2022/01/17 09:39:57;;;;;;;36.45;4.63;;;7.40;81.50;;;;;;5061135;28;20079;-72
2022/01/17 09:42:23;;;;;;;34.00;4.30;;;7.40;81.70;;;;;;5022941;28;20139;-72
2022/01/17 09:44:48;;;;;;;29.90;4.70;;;7.40;81.60;;;;;;5057425;28;20143;-72
2022/01/17 09:47:15;;;;;;;34.50;6.03;;;7.50;81.20;;;;;;5033617;28;20032;-72
2022/01/17 09:49:51;;;;;;;35.70;4.72;;;7.60;81.10;;;;;;5035992;28;20424;-72
2022/01/17 09:52:36;;;;;;;28.65;4.75;;;7.70;81.00;;;;;;5052458;28;20055;-72
2022/01/17 09:55:14;;;;;;;32.42;4.97;;;7.80;81.10;;;;;;5037340;28;20059;-72
2022/01/17 09:57:48;;;;;;;39.35;6.97;;;7.90;80.30;;;;;;5039568;28;20052;-72
2022/01/17 10:00:15;;;;;;;32.58;4.60;;;7.90;80.10;;;;;;5037467;28;20036;-73
2022/01/17 10:02:42;;;;;;;34.53;5.53;;;7.90;80.20;;;;;;5040619;28;20041;-72
2022/01/17 10:05:08;;;;;;;39.00;5.57;;;7.90;80.30;;;;;;5048051;28;20071;-72
2022/01/17 10:08:06;;;;;;;41.33;6.22;;;7.90;80.30;;;;;;5046922;28;20127;-72
2022/01/17 10:10:44;;;;;;;36.70;5.88;;;7.90;80.10;;;;;;5039102;28;20119;-72
2022/01/17 10:13:23;;;;;;;38.72;5.53;;;7.90;80.20;;;;;;5053782;28;20152;-72
2022/01/17 10:16:01;;;;;;;36.50;4.97;;;8.00;79.60;;;;;;5050908;28;20567;-72
2022/01/17 10:18:34;;;;;;;34.30;4.95;;;8.10;80.10;;;;;;5058229;28;20036;-72
2022/01/17 10:21:08;;;;;;;33.03;5.43;;;8.30;79.80;;;;;;5040303;28;20397;-72
2022/01/17 10:23:49;;;;;;;34.47;6.45;;;8.30;79.20;;;;;;5052601;28;20043;-72
2022/01/17 10:27:09;;;;;;;38.92;5.68;;;8.30;79.40;;;;;;5037020;28;20036;-72
2022/01/17 10:35:10;;;;;;;33.13;5.40;;;8.50;79.10;;;;;;5027786;28;20080;-73
2022/01/17 10:37:36;;;;;;;37.78;5.05;;;8.60;78.70;;;;;;5061391;28;20161;-73
2022/01/17 10:40:10;;;;;;;41.73;6.47;;;8.60;78.70;;;;;;5059936;28;20056;-73
2022/01/17 10:42:45;;;;;;;32.47;5.50;;;8.60;78.80;;;;;;5065524;28;20492;-73
2022/01/17 10:45:15;;;;;;;;;;;8.60;78.50;;;;;;5057150;28;20047;-73
2022/01/17 10:47:43;;;;;;;39.05;5.97;;;8.60;78.60;;;;;;5057939;28;19920;-73
2022/01/17 10:50:23;;;;;;;41.05;6.32;;;8.70;78.90;;;;;;5055794;28;20162;-73
2022/01/17 10:52:50;;;;;;;41.28;5.97;;;8.70;78.70;;;;;;5045832;28;20071;-73
2022/01/17 10:55:31;;;;;;;38.38;5.70;;;8.70;78.80;;;;;;5036041;28;20055;-73
2022/01/17 10:58:02;;;;;;;32.60;5.55;;;8.70;78.80;;;;;;5045538;28;20056;-73
2022/01/17 11:00:34;;;;;;;36.55;6.43;;;8.70;78.20;;;;;;5045015;28;20532;-73
2022/01/17 11:03:07;;;;;;;38.92;6.28;;;8.60;78.90;;;;;;5034950;28;20458;-73
2022/01/17 11:05:34;;;;;;;45.67;6.60;;;8.60;78.70;;;;;;5041089;28;20092;-73
2022/01/17 11:08:01;;;;;;;43.78;6.00;;;8.60;79.10;;;;;;5056502;28;20493;-73
2022/01/17 11:10:39;;;;;;;48.53;7.18;;;8.60;79.40;;;;;;5069416;28;20128;-73
2022/01/17 11:13:12;;;;;;;39.25;6.03;;;8.60;79.30;;;;;;5039767;28;20045;-73
2022/01/17 11:15:39;;;;;;;47.50;8.50;;;8.50;79.40;;;;;;5053272;28;20127;-73
2022/01/17 11:18:24;;;;;;;39.45;7.47;;;8.60;78.90;;;;;;5005520;28;20041;-73
2022/01/17 11:20:53;;;;;;;40.17;6.80;;;8.60;79.30;;;;;;5064281;28;20470;-73
2022/01/17 11:23:21;;;;;;;43.58;7.18;;;8.60;79.20;;;;;;5050545;28;20049;-73
2022/01/17 11:25:52;;;;;;;45.60;6.90;;;8.70;78.90;;;;;;5050739;28;20041;-73
2022/01/17 11:28:23;;;;;;;46.58;7.43;;;8.70;79.10;;;;;;5036078;28;20545;-73
2022/01/17 11:30:51;;;;;;;41.20;7.10;;;8.70;78.80;;;;;;5057413;28;20115;-73
2022/01/17 11:33:17;;;;;;;43.92;6.90;;;8.80;79.00;;;;;;5054287;28;20102;-73
2022/01/17 11:35:46;;;;;;;39.33;6.67;;;8.80;79.10;;;;;;5023906;28;20071;-73
2022/01/17 11:38:15;;;;;;;47.03;6.93;;;8.80;78.80;;;;;;5061977;28;20281;-73
2022/01/17 11:40:43;;;;;;;46.88;8.02;;;8.90;78.50;;;;;;5064477;28;20340;-73
2022/01/17 11:43:21;;;;;;;50.60;6.85;;;8.90;78.50;;;;;;5035523;28;20131;-73
2022/01/17 11:45:52;;;;;;;44.90;7.10;;;8.90;78.40;;;;;;5038757;28;20553;-73
2022/01/17 11:48:22;;;;;;;56.67;7.40;;;8.90;79.00;;;;;;5052855;28;20036;-73
2022/01/17 11:50:49;;;;;;;41.05;7.00;;;8.90;78.80;;;;;;5051599;28;20068;-73
2022/01/17 11:53:15;;;;;;;39.78;6.90;;;8.90;78.80;;;;;;5051669;28;20063;-73
2022/01/17 11:55:44;;;;;;;52.87;7.23;;;9.00;79.10;;;;;;5042583;28;20041;-74
2022/01/17 11:58:30;;;;;;;42.40;7.70;;;9.00;78.90;;;;;;5045219;28;20386;-73
2022/01/17 12:00:59;;;;;;;42.35;7.28;;;9.00;78.40;;;;;;5053566;28;20067;-73
2022/01/17 12:03:26;;;;;;;44.75;7.10;;;9.00;78.70;;;;;;5050157;28;20052;-73
2022/01/17 12:05:54;;;;;;;44.00;7.72;;;9.00;78.40;;;;;;5049498;28;20044;-73
2022/01/17 12:08:31;;;;;;;47.95;7.70;;;9.10;78.60;;;;;;5046631;28;20044;-73
2022/01/17 12:11:03;;;;;;;46.67;8.20;;;9.10;78.70;;;;;;5058146;28;20654;-73
2022/01/17 12:13:39;;;;;;;39.33;7.43;;;9.10;78.80;;;;;;5059718;28;20041;-73
2022/01/17 12:16:07;;;;;;;48.45;7.13;;;9.10;78.70;;;;;;5032502;28;20068;-73
2022/01/17 12:18:39;;;;;;;51.40;7.75;;;9.10;78.60;;;;;;5068747;28;20071;-73
2022/01/17 12:21:32;;;;;;;45.97;8.77;;;9.10;78.30;;;;;;5037708;28;20033;-73
2022/01/17 12:24:17;;;;;;;48.30;8.82;;;9.10;78.00;;;;;;5061804;28;20039;-73
2022/01/17 12:26:56;;;;;;;50.72;7.53;;;9.10;78.00;;;;;;5068541;28;20076;-73
2022/01/17 12:29:43;;;;;;;47.35;8.20;;;9.10;78.20;;;;;;5052316;28;20050;-73
2022/01/17 12:32:34;;;;;;;48.88;7.78;;;9.00;78.60;;;;;;5054173;28;20058;-72
2022/01/17 12:35:08;;;;;;;62.15;8.43;;;9.00;78.60;;;;;;5044953;28;20045;-72
2022/01/17 12:37:43;;;;;;;47.55;8.10;;;9.00;78.70;;;;;;5069503;28;20044;-73
2022/01/17 12:40:23;;;;;;;48.67;7.85;;;9.00;78.40;;;;;;5043362;28;20156;-73
2022/01/17 12:43:00;;;;;;;54.53;7.65;;;9.00;78.60;;;;;;5038696;28;20080;-72
2022/01/17 12:45:39;;;;;;;53.45;9.32;;;9.00;78.60;;;;;;5041197;28;20045;-72
2022/01/17 12:48:18;;;;;;;58.38;9.63;;;8.90;78.40;;;;;;5062009;28;20040;-74
2022/01/17 12:50:46;;;;;;;47.50;7.68;;;8.90;78.80;;;;;;5053139;28;20047;-73
2022/01/17 12:53:14;;;;;;;61.40;8.60;;;8.90;79.20;;;;;;5051510;28;20048;-73
2022/01/17 12:55:49;;;;;;;56.45;7.38;;;8.90;79.30;;;;;;5068886;28;20040;-73
2022/01/17 12:58:19;;;;;;;45.03;7.15;;;9.00;78.90;;;;;;5069760;28;20119;-73
2022/01/17 13:00:52;;;;;;;47.40;7.15;;;9.00;79.00;;;;;;5060608;28;20412;-73
2022/01/17 13:03:21;;;;;;;47.80;7.45;;;9.00;78.60;;;;;;5053906;28;20260;-73
2022/01/17 13:05:47;;;;;;;44.40;7.63;;;9.10;78.80;;;;;;5046141;28;20040;-73
2022/01/17 13:08:14;;;;;;;44.75;7.47;;;9.10;78.80;;;;;;5033107;28;20410;-73
2022/01/17 13:10:41;;;;;;;43.42;7.95;;;9.20;78.70;;;;;;5035961;28;20040;-73
2022/01/17 13:13:09;;;;;;;48.13;8.07;;;9.20;78.70;;;;;;5040480;28;20470;-73
2022/01/17 13:15:35;;;;;;;48.70;7.93;;;9.20;78.40;;;;;;5048440;28;20456;-72
2022/01/17 13:18:01;;;;;;;51.20;7.80;;;9.10;78.20;;;;;;5076860;28;20076;-73
2022/01/17 13:20:28;;;;;;;53.43;7.90;;;9.10;78.00;;;;;;5060479;28;20123;-72
2022/01/17 13:23:02;;;;;;;49.72;8.30;;;9.10;78.50;;;;;;5038332;28;20044;-72
2022/01/17 13:25:29;;;;;;;46.92;7.65;;;9.10;78.70;;;;;;5049691;28;20046;-72
2022/01/17 13:28:01;;;;;;;54.47;8.32;;;9.10;78.70;;;;;;5038895;28;20044;-72